createdAt,value
2019-05-25T00:01:14.191Z,12.30
2019-05-25T00:03:40.031Z,12.45
2019-05-25T00:06:05.982Z,12.50
2019-05-25T00:08:31.809Z,12.01
2019-05-25T00:10:57.674Z,11.90
2019-05-25T00:13:23.519Z,11.60
2019-05-25T00:15:49.367Z,11.46
2019-05-25T00:18:15.216Z,11.39
2019-05-25T00:20:41.045Z,11.49
2019-05-25T00:23:06.909Z,11.39
2019-05-25T00:25:32.761Z,11.48
2019-05-25T00:27:58.606Z,11.93
2019-05-25T00:30:24.475Z,12.03
2019-05-25T00:32:50.336Z,11.85
2019-05-25T00:35:16.206Z,11.86
2019-05-25T00:37:42.090Z,11.85
2019-05-25T00:40:08.213Z,11.59
2019-05-25T00:42:34.070Z,11.54
2019-05-25T00:44:59.915Z,11.39
2019-05-25T00:47:25.775Z,11.45
2019-05-25T00:49:51.611Z,11.65
2019-05-25T00:52:17.467Z,11.73
2019-05-25T00:54:43.300Z,11.77
2019-05-25T00:57:09.234Z,11.69
2019-05-25T00:59:35.059Z,11.63
2019-05-25T01:02:00.893Z,11.87
2019-05-25T01:04:26.763Z,11.63
2019-05-25T01:06:52.599Z,11.67
2019-05-25T01:09:18.463Z,11.75
2019-05-25T01:11:44.299Z,11.76
2019-05-25T01:14:10.158Z,11.43
2019-05-25T01:16:36.095Z,11.09
2019-05-25T01:19:02.042Z,11.04
2019-05-25T01:21:28.082Z,11.00
2019-05-25T01:23:53.944Z,10.83
2019-05-25T01:26:19.788Z,10.95
2019-05-25T01:28:45.649Z,10.89
2019-05-25T01:31:11.460Z,11.08
2019-05-25T01:33:37.320Z,10.91
2019-05-25T01:36:03.266Z,10.61
2019-05-25T01:38:29.120Z,10.75
2019-05-25T01:40:54.966Z,11.08
2019-05-25T01:43:20.799Z,11.12
2019-05-25T01:45:46.669Z,11.05
2019-05-25T01:48:12.508Z,10.74
2019-05-25T01:50:38.361Z,10.69
2019-05-25T01:53:04.196Z,10.97
2019-05-25T01:55:30.269Z,10.98
2019-05-25T01:57:56.113Z,11.18
2019-05-25T02:00:22.265Z,11.18
2019-05-25T02:02:48.158Z,11.19
2019-05-25T02:05:14.288Z,11.20
2019-05-25T02:07:40.122Z,11.01
2019-05-25T02:10:06.881Z,10.88
2019-05-25T02:12:32.733Z,11.00
2019-05-25T02:14:58.605Z,10.82
2019-05-25T02:17:24.453Z,10.95
2019-05-25T02:19:50.333Z,10.89
2019-05-25T02:22:16.248Z,10.46
2019-05-25T02:24:42.476Z,10.56
2019-05-25T02:27:08.325Z,10.82
2019-05-25T02:29:34.318Z,10.83
2019-05-25T02:32:00.155Z,10.78
2019-05-25T02:34:26.015Z,10.32
2019-05-25T02:36:51.866Z,10.29
2019-05-25T02:39:17.713Z,10.67
2019-05-25T02:41:43.678Z,10.74
2019-05-25T02:44:09.655Z,10.51
2019-05-25T02:46:35.531Z,10.58
2019-05-25T02:49:01.375Z,10.22
2019-05-25T02:51:27.245Z,10.13
2019-05-25T02:53:53.061Z,10.10
2019-05-25T02:56:18.901Z,10.06
2019-05-25T02:58:44.736Z,10.21
2019-05-25T03:01:10.599Z,10.25
2019-05-25T03:03:36.435Z,10.29
2019-05-25T03:06:04.254Z,10.25
2019-05-25T03:08:30.361Z,10.20
2019-05-25T03:10:56.344Z,10.31
2019-05-25T03:13:22.284Z,10.31
2019-05-25T03:15:48.317Z,10.16
2019-05-25T03:18:14.247Z,9.86
2019-05-25T03:20:40.208Z,9.86
2019-05-25T03:23:06.103Z,9.69
2019-05-25T03:25:31.962Z,9.95
2019-05-25T03:27:57.870Z,10.07
2019-05-25T03:30:32.166Z,10.09
2019-05-25T03:32:58.054Z,10.03
2019-05-25T03:35:23.897Z,10.03
2019-05-25T03:37:49.762Z,9.58
2019-05-25T03:40:15.689Z,9.47
2019-05-25T03:42:41.550Z,9.87
2019-05-25T03:45:07.707Z,9.91
2019-05-25T03:47:33.566Z,9.52
2019-05-25T03:49:59.390Z,9.29
2019-05-25T03:52:25.258Z,9.74
2019-05-25T03:54:51.108Z,10.00
2019-05-25T03:57:16.955Z,9.95
2019-05-25T03:59:42.881Z,9.95
2019-05-25T04:02:08.731Z,10.19
2019-05-25T04:04:34.612Z,10.31
2019-05-25T04:07:00.470Z,10.38
2019-05-25T04:09:26.315Z,10.42
2019-05-25T04:11:52.141Z,10.17
2019-05-25T04:14:17.989Z,9.95
2019-05-25T04:16:43.835Z,10.12
2019-05-25T04:19:09.683Z,10.31
2019-05-25T04:21:35.529Z,10.36
2019-05-25T04:24:01.395Z,10.59
2019-05-25T04:26:27.676Z,10.71
2019-05-25T04:28:56.490Z,10.89
2019-05-25T04:31:25.619Z,11.00
2019-05-25T04:33:51.682Z,11.05
2019-05-25T04:36:17.791Z,11.24
2019-05-25T04:38:43.668Z,11.23
2019-05-25T04:41:09.509Z,11.24
2019-05-25T04:43:35.342Z,11.46
2019-05-25T04:46:01.220Z,11.36
2019-05-25T04:48:27.048Z,11.44
2019-05-25T04:50:52.910Z,11.43
2019-05-25T04:53:18.893Z,11.34
2019-05-25T04:55:44.738Z,11.23
2019-05-25T04:58:10.598Z,11.33
2019-05-25T05:00:36.478Z,11.30
2019-05-25T05:03:02.309Z,11.34
2019-05-25T05:05:28.166Z,11.38
2019-05-25T05:07:54.062Z,10.98
2019-05-25T05:10:19.920Z,10.98
2019-05-25T05:12:45.787Z,11.08
2019-05-25T05:15:11.853Z,11.22
2019-05-25T05:17:38.015Z,11.59
2019-05-25T05:20:05.784Z,11.88
2019-05-25T05:22:31.638Z,11.93
2019-05-25T05:24:57.491Z,11.93
2019-05-25T05:27:23.431Z,12.34
2019-05-25T05:29:49.323Z,12.23
2019-05-25T05:32:26.982Z,12.42
2019-05-25T05:34:42.908Z,12.33
2019-05-25T05:37:09.374Z,12.55
2019-05-25T05:39:35.313Z,12.71
2019-05-25T05:42:01.326Z,12.76
2019-05-25T05:44:27.302Z,12.91
2019-05-25T05:46:55.557Z,13.08
2019-05-25T05:49:22.815Z,13.16
2019-05-25T05:51:48.677Z,13.22
2019-05-25T05:54:15.569Z,13.57
2019-05-25T05:56:41.424Z,13.73
2019-05-25T05:59:07.253Z,13.70
2019-05-25T06:01:33.183Z,13.73
2019-05-25T06:03:59.107Z,14.08
2019-05-25T06:06:24.925Z,14.04
2019-05-25T06:08:50.782Z,14.22
2019-05-25T06:11:16.660Z,14.58
2019-05-25T06:13:42.501Z,14.86
2019-05-25T06:16:08.359Z,15.00
2019-05-25T06:18:34.195Z,15.21
2019-05-25T06:21:00.065Z,15.51
2019-05-25T06:23:25.908Z,15.72
2019-05-25T06:25:52.578Z,15.70
2019-05-25T06:28:22.369Z,16.00
2019-05-25T06:30:47.977Z,15.90
2019-05-25T06:33:13.828Z,16.33
2019-05-25T06:35:40.099Z,16.40
2019-05-25T06:38:06.071Z,16.66
2019-05-25T06:40:32.029Z,16.96
2019-05-25T06:42:57.895Z,17.09
2019-05-25T06:45:23.724Z,17.21
2019-05-25T06:47:49.603Z,17.30
2019-05-25T06:50:15.741Z,17.53
2019-05-25T06:52:41.645Z,17.60
2019-05-25T06:55:07.712Z,17.79
2019-05-25T06:57:42.635Z,17.79
2019-05-25T07:00:03.866Z,17.69
2019-05-25T07:02:29.741Z,18.02
2019-05-25T07:04:55.722Z,18.11
2019-05-25T07:07:21.593Z,18.24
2019-05-25T07:09:47.466Z,18.46
2019-05-25T07:12:13.320Z,18.48
2019-05-25T07:14:39.291Z,18.47
2019-05-25T07:17:05.243Z,18.75
2019-05-25T07:19:31.112Z,18.38
2019-05-25T07:21:56.978Z,18.54
2019-05-25T07:24:22.840Z,18.31
2019-05-25T07:26:48.671Z,18.70
2019-05-25T07:29:14.544Z,18.69
2019-05-25T07:31:40.375Z,18.78
2019-05-25T07:34:06.223Z,19.17
2019-05-25T07:36:32.247Z,19.60
2019-05-25T07:38:58.139Z,19.80
2019-05-25T07:41:24.023Z,20.04
2019-05-25T07:43:49.914Z,20.24
2019-05-25T07:46:17.254Z,20.02
2019-05-25T07:48:43.306Z,19.83
2019-05-25T07:51:09.196Z,20.08
2019-05-25T07:53:35.085Z,20.37
2019-05-25T07:56:00.943Z,20.61
2019-05-25T07:58:26.803Z,20.79
2019-05-25T08:00:52.660Z,21.15
2019-05-25T08:03:18.530Z,21.34
2019-05-25T08:05:44.414Z,21.31
2019-05-25T08:08:10.278Z,21.42
2019-05-25T08:10:36.159Z,21.73
2019-05-25T08:13:02.013Z,21.95
2019-05-25T08:15:27.893Z,21.68
2019-05-25T08:17:53.752Z,22.01
2019-05-25T08:20:19.794Z,21.94
2019-05-25T08:22:45.753Z,22.08
2019-05-25T08:25:12.028Z,22.09
2019-05-25T08:27:37.920Z,22.45
2019-05-25T08:30:05.812Z,22.35
2019-05-25T08:32:31.688Z,22.40
2019-05-25T08:34:57.545Z,22.72
2019-05-25T08:37:23.431Z,22.56
2019-05-25T08:39:49.271Z,22.07
2019-05-25T08:42:15.128Z,22.16
2019-05-25T08:44:40.995Z,22.28
2019-05-25T08:47:06.843Z,22.64
2019-05-25T08:49:32.737Z,22.90
2019-05-25T08:51:58.605Z,22.78
2019-05-25T08:54:24.612Z,22.68
2019-05-25T08:56:50.506Z,22.90
2019-05-25T08:59:16.357Z,22.58
2019-05-25T09:01:42.321Z,22.25
2019-05-25T09:04:08.256Z,22.38
2019-05-25T09:06:34.204Z,22.39
2019-05-25T09:09:00.050Z,22.63
2019-05-25T09:11:26.030Z,23.02
2019-05-25T09:13:51.932Z,23.02
2019-05-25T09:16:17.761Z,22.83
2019-05-25T09:18:43.617Z,23.06
2019-05-25T09:21:09.513Z,22.57
2019-05-25T09:23:35.358Z,22.08
2019-05-25T09:26:01.327Z,21.59
2019-05-25T09:28:27.222Z,21.30
2019-05-25T09:30:53.214Z,21.00
2019-05-25T09:33:19.086Z,21.39
2019-05-25T09:35:44.961Z,21.33
2019-05-25T09:38:10.824Z,21.36
2019-05-25T09:40:36.680Z,21.44
2019-05-25T09:43:02.620Z,21.68
2019-05-25T09:45:30.477Z,21.51
2019-05-25T09:47:56.510Z,21.51
2019-05-25T09:50:22.345Z,21.70
2019-05-25T09:52:48.272Z,21.37
2019-05-25T09:55:15.302Z,21.21
2019-05-25T09:57:41.987Z,21.43
2019-05-25T10:00:09.478Z,20.94
2019-05-25T10:02:35.444Z,20.83
2019-05-25T10:05:01.411Z,20.88
2019-05-25T10:07:27.274Z,20.82
2019-05-25T10:09:53.147Z,20.68
2019-05-25T10:12:19.016Z,20.61
2019-05-25T10:14:44.883Z,20.72
2019-05-25T10:17:10.752Z,20.87
2019-05-25T10:19:36.621Z,21.30
2019-05-25T10:22:03.615Z,21.44
2019-05-25T10:24:29.466Z,21.70
2019-05-25T10:26:55.317Z,21.66
2019-05-25T10:29:35.983Z,21.61
2019-05-25T10:31:49.108Z,21.74
2019-05-25T10:34:14.986Z,21.48
2019-05-25T10:36:40.915Z,21.52
2019-05-25T10:39:06.772Z,22.06
2019-05-25T10:41:32.656Z,22.45
2019-05-25T10:43:58.510Z,22.04
2019-05-25T10:46:24.489Z,22.33
2019-05-25T10:48:50.405Z,22.94
2019-05-25T10:51:16.287Z,22.94
2019-05-25T10:53:42.135Z,23.02
2019-05-25T10:56:07.992Z,23.11
2019-05-25T10:58:33.824Z,23.40
2019-05-25T11:00:59.691Z,23.52
2019-05-25T11:03:25.548Z,23.27
2019-05-25T11:05:51.404Z,23.48
2019-05-25T11:08:17.257Z,23.57
2019-05-25T11:10:43.129Z,23.61
2019-05-25T11:13:08.960Z,23.97
2019-05-25T11:15:34.792Z,23.71
2019-05-25T11:18:00.632Z,23.30
2019-05-25T11:20:26.494Z,22.82
2019-05-25T11:22:52.322Z,22.88
2019-05-25T11:25:18.176Z,22.59
2019-05-25T11:27:44.012Z,21.49
2019-05-25T11:30:10.715Z,21.21
2019-05-25T11:32:36.666Z,21.52
2019-05-25T11:35:05.016Z,22.04
2019-05-25T11:37:30.899Z,22.15
2019-05-25T11:39:56.731Z,22.19
2019-05-25T11:42:22.642Z,22.11
2019-05-25T11:44:48.531Z,23.35
2019-05-25T11:47:14.416Z,23.43
2019-05-25T11:49:40.251Z,24.14
2019-05-25T11:52:06.122Z,24.22
2019-05-25T11:54:31.944Z,23.86
2019-05-25T11:56:57.828Z,23.38
2019-05-25T11:59:23.695Z,23.00
2019-05-25T12:01:49.564Z,22.31
2019-05-25T12:04:15.436Z,21.70
2019-05-25T12:06:41.287Z,20.83
2019-05-25T12:09:07.319Z,20.48
2019-05-25T12:11:33.296Z,20.52
2019-05-25T12:13:59.124Z,20.35
2019-05-25T12:16:24.997Z,20.36
2019-05-25T12:18:50.872Z,20.48
2019-05-25T12:21:16.703Z,20.32
2019-05-25T12:23:42.600Z,21.26
2019-05-25T12:26:08.455Z,21.27
2019-05-25T12:28:34.320Z,20.91
2019-05-25T12:31:00.173Z,20.81
2019-05-25T12:33:26.262Z,21.66
2019-05-25T12:35:52.426Z,22.32
2019-05-25T12:38:18.292Z,22.74
2019-05-25T12:40:53.315Z,22.58
2019-05-25T12:43:11.898Z,22.71
2019-05-25T12:45:37.755Z,22.67
2019-05-25T12:48:03.849Z,22.23
2019-05-25T12:50:29.668Z,21.52
2019-05-25T12:52:55.549Z,22.34
2019-05-25T12:55:21.448Z,22.26
2019-05-25T12:57:47.325Z,22.26
2019-05-25T13:00:15.937Z,22.19
2019-05-25T13:02:40.956Z,22.33
2019-05-25T13:05:07.515Z,22.28
2019-05-25T13:07:33.371Z,22.57
2019-05-25T13:09:59.233Z,21.63
2019-05-25T13:12:25.202Z,21.74
2019-05-25T13:14:51.061Z,22.02
2019-05-25T13:17:16.933Z,22.61
2019-05-25T13:19:42.822Z,23.19
2019-05-25T13:22:08.686Z,23.44
2019-05-25T13:24:34.539Z,23.09
2019-05-25T13:27:00.503Z,23.03
2019-05-25T13:29:26.327Z,22.30
2019-05-25T13:31:52.165Z,21.69
2019-05-25T13:34:18.059Z,22.14
2019-05-25T13:36:43.931Z,22.77
2019-05-25T13:39:09.757Z,23.34
2019-05-25T13:41:35.604Z,22.85
2019-05-25T13:44:01.460Z,22.82
2019-05-25T13:46:27.618Z,21.88
2019-05-25T13:48:53.463Z,22.32
2019-05-25T13:51:19.634Z,22.26
2019-05-25T13:53:45.471Z,22.26
2019-05-25T13:56:11.358Z,21.65
2019-05-25T13:58:39.137Z,21.85
2019-05-25T14:01:04.986Z,21.89
2019-05-25T14:03:30.816Z,21.82
2019-05-25T14:05:56.689Z,21.79
2019-05-25T14:08:22.541Z,22.25
2019-05-25T14:10:48.410Z,21.62
2019-05-25T14:13:14.246Z,21.82
2019-05-25T14:15:40.144Z,21.88
2019-05-25T14:18:05.982Z,21.81
2019-05-25T14:20:31.843Z,20.93
2019-05-25T14:22:57.677Z,19.99
2019-05-25T14:25:23.526Z,20.10
2019-05-25T14:27:49.360Z,19.63
2019-05-25T14:30:15.666Z,20.34
2019-05-25T14:32:41.491Z,20.70
2019-05-25T14:35:07.649Z,19.99
2019-05-25T14:37:33.540Z,19.49
2019-05-25T14:39:59.587Z,19.54
2019-05-25T14:42:25.464Z,19.35
2019-05-25T14:44:51.388Z,19.57
2019-05-25T14:47:17.607Z,19.07
2019-05-25T14:49:43.460Z,19.23
2019-05-25T14:52:11.739Z,18.91
2019-05-25T14:54:37.930Z,18.88
2019-05-25T14:57:04.767Z,18.95
2019-05-25T14:59:32.733Z,18.90
2019-05-25T15:02:02.452Z,19.36
2019-05-25T15:04:26.852Z,20.43
2019-05-25T15:06:52.707Z,20.95
2019-05-25T15:09:18.665Z,21.07
2019-05-25T15:11:44.531Z,21.47
2019-05-25T15:14:10.428Z,21.46
2019-05-25T15:16:36.390Z,21.33
2019-05-25T15:19:02.755Z,21.22
2019-05-25T15:21:28.620Z,21.74
2019-05-25T15:23:54.490Z,21.79
2019-05-25T15:26:20.327Z,21.71
2019-05-25T15:28:46.238Z,21.69
2019-05-25T15:31:12.086Z,21.88
2019-05-25T15:33:37.963Z,22.39
2019-05-25T15:36:03.847Z,21.58
2019-05-25T15:38:29.687Z,21.49
2019-05-25T15:40:55.560Z,21.78
2019-05-25T15:43:21.388Z,21.49
2019-05-25T15:45:47.225Z,21.37
2019-05-25T15:48:13.071Z,21.98
2019-05-25T15:50:38.939Z,22.04
2019-05-25T15:53:04.998Z,22.38
2019-05-25T15:55:30.872Z,22.52
2019-05-25T15:57:56.744Z,22.23
2019-05-25T16:00:43.085Z,21.58
2019-05-25T16:03:09.064Z,21.37
2019-05-25T16:05:34.916Z,21.48
2019-05-25T16:08:01.659Z,21.33
2019-05-25T16:10:27.644Z,21.51
2019-05-25T16:12:53.516Z,20.82
2019-05-25T16:15:26.539Z,20.98
2019-05-25T16:17:52.458Z,21.23
2019-05-25T16:20:21.036Z,21.17
2019-05-25T16:22:46.901Z,20.61
2019-05-25T16:25:12.770Z,20.84
2019-05-25T16:27:38.629Z,20.81
2019-05-25T16:30:07.779Z,20.43
2019-05-25T16:32:33.631Z,20.67
2019-05-25T16:34:59.487Z,20.69
2019-05-25T16:37:25.441Z,20.94
2019-05-25T16:39:51.329Z,20.91
2019-05-25T16:42:17.167Z,20.85
2019-05-25T16:44:43.015Z,20.92
2019-05-25T16:47:08.861Z,20.97
2019-05-25T16:49:34.736Z,20.93
2019-05-25T16:52:00.567Z,20.35
2019-05-25T16:54:26.547Z,20.56
2019-05-25T16:56:52.409Z,20.69
2019-05-25T16:59:18.234Z,20.70
2019-05-25T17:01:48.526Z,20.83
2019-05-25T17:04:11.992Z,20.70
2019-05-25T17:06:37.976Z,20.65
2019-05-25T17:09:05.332Z,20.68
2019-05-25T17:11:31.413Z,20.75
2019-05-25T17:13:57.285Z,20.74
2019-05-25T17:16:23.146Z,20.54
2019-05-25T17:18:48.983Z,20.54
2019-05-25T17:21:14.829Z,20.47
2019-05-25T17:23:40.710Z,20.57
2019-05-25T17:26:06.596Z,20.46
2019-05-25T17:28:32.459Z,20.44
2019-05-25T17:30:58.340Z,20.29
2019-05-25T17:33:24.211Z,20.42
2019-05-25T17:35:50.189Z,19.98
2019-05-25T17:38:16.252Z,20.49
2019-05-25T17:40:42.077Z,20.14
2019-05-25T17:43:08.047Z,19.63
2019-05-25T17:45:34.003Z,19.88
2019-05-25T17:47:59.860Z,19.62
2019-05-25T17:50:25.721Z,19.67
2019-05-25T17:52:51.588Z,19.71
2019-05-25T17:55:17.554Z,19.57
2019-05-25T17:57:43.438Z,19.68
2019-05-25T18:00:10.399Z,19.60
2019-05-25T18:02:36.281Z,19.75
2019-05-25T18:05:05.989Z,19.87
2019-05-25T18:07:31.880Z,20.00
2019-05-25T18:09:57.748Z,20.40
2019-05-25T18:12:23.624Z,20.39
2019-05-25T18:14:49.493Z,20.37
2019-05-25T18:17:15.345Z,20.42
2019-05-25T18:19:41.205Z,20.30
2019-05-25T18:22:07.070Z,20.31
2019-05-25T18:24:32.895Z,20.24
2019-05-25T18:26:58.774Z,20.29
2019-05-25T18:29:24.611Z,20.32
2019-05-25T18:31:50.443Z,20.11
2019-05-25T18:34:21.974Z,20.19
2019-05-25T18:36:44.176Z,20.03
2019-05-25T18:39:10.155Z,20.02
2019-05-25T18:41:35.984Z,20.05
2019-05-25T18:44:01.961Z,19.89
2019-05-25T18:48:53.633Z,19.78
2019-05-25T18:51:19.473Z,19.60
2019-05-25T18:53:45.482Z,19.64
2019-05-25T18:56:11.354Z,19.59
2019-05-25T18:58:37.236Z,19.54
2019-05-25T19:01:03.184Z,19.54
2019-05-25T19:03:29.047Z,19.54
2019-05-25T19:05:54.878Z,19.39
2019-05-25T19:08:20.755Z,19.26
2019-05-25T19:10:46.573Z,19.14
2019-05-25T19:13:12.429Z,18.71
2019-05-25T19:15:38.393Z,18.71
2019-05-25T19:18:04.253Z,18.39
2019-05-25T19:20:30.121Z,18.46
2019-05-25T19:22:55.971Z,18.46
2019-05-25T19:25:21.839Z,18.52
2019-05-25T19:27:47.683Z,18.57
2019-05-25T19:30:14.162Z,18.67
2019-05-25T19:32:40.050Z,18.70
2019-05-25T19:35:07.001Z,18.60
2019-05-25T19:37:32.993Z,18.58
2019-05-25T19:39:58.880Z,18.41
2019-05-25T19:42:24.879Z,18.16
2019-05-25T19:44:50.735Z,17.75
2019-05-25T19:47:16.708Z,16.90
2019-05-25T19:49:43.365Z,16.81
2019-05-25T19:52:09.432Z,17.02
2019-05-25T19:54:35.289Z,17.18
2019-05-25T19:57:01.539Z,17.16
2019-05-25T19:59:27.378Z,17.12
2019-05-25T20:01:53.244Z,17.03
2019-05-25T20:04:19.122Z,17.10
2019-05-25T20:06:45.025Z,17.10
2019-05-25T20:09:10.881Z,17.10
2019-05-25T20:11:36.732Z,16.95
2019-05-25T20:14:03.033Z,16.77
2019-05-25T20:16:28.908Z,16.81
2019-05-25T20:18:54.767Z,16.75
2019-05-25T20:21:20.717Z,16.80
2019-05-25T20:23:46.549Z,16.67
2019-05-25T20:26:12.413Z,16.62
2019-05-25T20:28:38.274Z,16.74
2019-05-25T20:31:04.222Z,16.32
2019-05-25T20:33:30.125Z,15.88
2019-05-25T20:35:56.220Z,15.84
2019-05-25T20:38:22.069Z,16.05
2019-05-25T20:40:48.027Z,16.17
2019-05-25T20:43:13.892Z,16.43
2019-05-25T20:45:39.764Z,16.55
2019-05-25T20:48:05.655Z,16.47
2019-05-25T20:50:31.501Z,15.90
2019-05-25T20:52:57.380Z,15.57
2019-05-25T20:55:23.281Z,15.25
2019-05-25T20:57:49.145Z,15.18
2019-05-25T21:00:15.298Z,15.45
2019-05-25T21:02:41.242Z,15.45
2019-05-25T21:05:07.278Z,15.66
2019-05-25T21:07:33.344Z,15.62
2019-05-25T21:09:59.213Z,15.55
2019-05-25T21:12:25.067Z,15.51
2019-05-25T21:14:50.929Z,15.20
2019-05-25T21:17:16.809Z,15.19
2019-05-25T21:19:42.645Z,15.46
2019-05-25T21:22:08.521Z,15.77
2019-05-25T21:24:34.347Z,15.76
2019-05-25T21:27:00.180Z,15.63
2019-05-25T21:29:26.119Z,15.18
2019-05-25T21:31:51.982Z,15.18
2019-05-25T21:34:20.728Z,15.21
2019-05-25T21:36:46.577Z,15.42
2019-05-25T21:39:12.414Z,15.39
2019-05-25T21:41:38.373Z,15.46
2019-05-25T21:44:04.239Z,15.39
2019-05-25T21:46:30.056Z,15.26
2019-05-25T21:48:55.905Z,15.07
2019-05-25T21:51:21.801Z,15.03
2019-05-25T21:53:47.674Z,15.29
2019-05-25T21:56:13.550Z,15.24
2019-05-25T21:58:39.401Z,15.24
2019-05-25T22:01:05.426Z,15.02
2019-05-25T22:03:31.407Z,14.47
2019-05-25T22:05:57.336Z,14.06
2019-05-25T22:08:23.189Z,14.09
2019-05-25T22:10:49.063Z,13.90
2019-05-25T22:13:26.832Z,14.04
2019-05-25T22:15:42.634Z,14.20
2019-05-25T22:18:08.510Z,14.41
2019-05-25T22:20:34.341Z,14.57
2019-05-25T22:23:00.171Z,14.54
2019-05-25T22:25:26.010Z,14.51
2019-05-25T22:27:51.836Z,14.11
2019-05-25T22:30:19.202Z,14.15
2019-05-25T22:32:45.887Z,13.87
2019-05-25T22:35:12.530Z,13.38
2019-05-25T22:37:38.358Z,13.24
2019-05-25T22:40:06.477Z,13.55
2019-05-25T22:42:32.428Z,13.60
2019-05-25T22:44:58.291Z,13.84
2019-05-25T22:47:24.125Z,13.91
2019-05-25T22:49:49.972Z,13.88
2019-05-25T22:52:15.822Z,13.78
2019-05-25T22:54:41.650Z,13.50
2019-05-25T22:57:07.516Z,13.72
2019-05-25T22:59:33.362Z,13.43
2019-05-25T23:01:59.209Z,13.01
2019-05-25T23:04:25.054Z,13.12
2019-05-25T23:06:57.845Z,13.31
2019-05-25T23:09:18.659Z,13.34
2019-05-25T23:11:44.525Z,13.16
2019-05-25T23:14:10.331Z,13.08
2019-05-25T23:16:36.179Z,13.13
2019-05-25T23:19:02.018Z,13.23
2019-05-25T23:21:27.866Z,13.23
2019-05-25T23:23:53.696Z,13.17
2019-05-25T23:26:19.565Z,13.10
2019-05-25T23:28:45.513Z,13.19
2019-05-25T23:31:11.366Z,13.25
2019-05-25T23:33:37.219Z,13.37
2019-05-25T23:36:03.081Z,13.26
2019-05-25T23:38:28.918Z,12.87
2019-05-25T23:40:54.745Z,13.00
2019-05-25T23:43:20.728Z,12.41
2019-05-25T23:45:47.062Z,12.54
2019-05-25T23:48:12.921Z,12.73
2019-05-25T23:50:38.753Z,12.77
2019-05-25T23:53:04.697Z,13.00
2019-05-25T23:55:30.526Z,12.93
2019-05-25T23:57:56.380Z,12.60
